Time;durP1;ratioP1;P1;durP2;ratioP2;P2;SDS_P1;SDS_P2;PMS_P1;PMS_P2;Temp;Humidity;BMP_temperature;BMP_pressure;BME280_temperature;BME280_humidity;BME280_pressure;Samples;Min_cycle;Max_cycle;Signal;HPM_P1;HPM_P2
2021/07/07 00:04:22;;;;;;;5.03;4.73;;;18.30;99.90;;;;;;10544939;28;20637;-80
2021/07/07 00:09:24;;;;;;;4.50;4.20;;;18.40;99.90;;;;;;10543131;28;20227;-79
2021/07/07 00:14:27;;;;;;;4.77;4.47;;;18.50;99.90;;;;;;10542772;28;20211;-80
2021/07/07 00:19:29;;;;;;;3.93;3.73;;;18.50;99.90;;;;;;10523930;28;20223;-80
2021/07/07 00:24:31;;;;;;;4.40;3.80;;;18.50;99.90;;;;;;10535399;28;20232;-79
2021/07/07 00:29:35;;;;;;;3.90;3.60;;;18.60;99.90;;;;;;10530813;28;20227;-80
2021/07/07 00:34:37;;;;;;;4.20;3.20;;;18.70;99.90;;;;;;10529159;28;20307;-81
2021/07/07 00:39:39;;;;;;;4.10;3.10;;;18.70;99.90;;;;;;10531070;28;20235;-80
2021/07/07 00:44:42;;;;;;;3.00;2.80;;;18.70;99.90;;;;;;10535556;28;20223;-80
2021/07/07 00:49:44;;;;;;;2.67;2.57;;;18.70;99.90;;;;;;10542229;28;20231;-80
2021/07/07 00:54:46;;;;;;;3.10;2.90;;;18.70;99.90;;;;;;10542731;28;20210;-80
2021/07/07 00:59:50;;;;;;;3.23;3.03;;;18.70;99.90;;;;;;10527921;28;20232;-79
2021/07/07 01:04:52;;;;;;;3.20;3.00;;;18.60;99.90;;;;;;10550236;28;20227;-79
2021/07/07 01:09:54;;;;;;;3.43;3.20;;;18.70;99.90;;;;;;10534868;28;20221;-80
2021/07/07 01:15:01;;;;;;;2.70;2.60;;;18.70;99.90;;;;;;10530395;28;20193;-80
2021/07/07 01:20:07;;;;;;;3.27;2.90;;;18.60;99.90;;;;;;10506996;28;20644;-80
2021/07/07 01:25:13;;;;;;;3.50;3.27;;;18.50;99.90;;;;;;10508740;28;20277;-78
2021/07/07 01:30:17;;;;;;;3.40;3.20;;;18.40;99.90;;;;;;10510846;28;20239;-80
2021/07/07 01:35:20;;;;;;;3.77;3.57;;;18.40;99.90;;;;;;10511948;28;20205;-79
2021/07/07 01:40:26;;;;;;;3.80;3.60;;;18.30;99.90;;;;;;10505035;28;20228;-81
2021/07/07 01:45:28;;;;;;;4.40;4.00;;;18.40;99.90;;;;;;10509036;28;20220;-79
2021/07/07 01:50:30;;;;;;;4.90;4.50;;;18.40;99.90;;;;;;10506832;28;20235;-79
2021/07/07 01:55:34;;;;;;;4.93;4.53;;;18.30;99.90;;;;;;10540929;28;20215;-80
2021/07/07 02:00:37;;;;;;;5.17;4.77;;;18.30;99.90;;;;;;10533932;28;20216;-78
2021/07/07 02:05:40;;;;;;;7.70;4.63;;;18.40;99.90;;;;;;10524407;28;20267;-80
2021/07/07 02:10:44;;;;;;;5.73;4.73;;;18.40;99.90;;;;;;10539250;28;20234;-78
2021/07/07 02:15:46;;;;;;;5.93;5.20;;;18.40;99.90;;;;;;10537320;28;20218;-80
2021/07/07 02:20:48;;;;;;;6.23;5.73;;;18.40;99.90;;;;;;10524427;28;20228;-79
2021/07/07 02:25:52;;;;;;;6.90;6.27;;;18.30;99.90;;;;;;10530218;28;20237;-80
2021/07/07 02:30:55;;;;;;;6.70;6.20;;;18.40;99.90;;;;;;10531802;28;20223;-81
2021/07/07 02:35:57;;;;;;;7.10;6.70;;;18.40;99.90;;;;;;10545517;28;20203;-79
2021/07/07 02:41:01;;;;;;;7.17;6.67;;;18.40;99.90;;;;;;10541514;28;20295;-78
2021/07/07 02:46:03;;;;;;;7.23;6.73;;;18.30;99.90;;;;;;10539908;28;20665;-80
2021/07/07 02:51:05;;;;;;;8.33;7.53;;;18.30;99.90;;;;;;10544092;28;20208;-80
2021/07/07 02:56:08;;;;;;;7.80;7.30;;;18.30;99.90;;;;;;10545885;28;20214;-80
2021/07/07 03:01:10;;;;;;;8.93;8.33;;;18.30;99.90;;;;;;10543682;28;20215;-80
2021/07/07 03:06:12;;;;;;;9.27;8.40;;;18.30;99.90;;;;;;10546394;28;20299;-80
2021/07/07 03:11:16;;;;;;;9.40;8.70;;;18.30;99.90;;;;;;10546320;28;20223;-80
2021/07/07 03:16:18;;;;;;;9.17;8.37;;;18.30;99.90;;;;;;10546309;28;20219;-80
2021/07/07 03:21:20;;;;;;;9.17;8.47;;;18.30;99.90;;;;;;10546253;28;20568;-80
2021/07/07 03:26:23;;;;;;;10.57;9.57;;;18.30;99.90;;;;;;10546345;28;20243;-80
2021/07/07 03:31:25;;;;;;;11.20;10.20;;;18.20;99.90;;;;;;10543961;28;20232;-80
2021/07/07 03:36:27;;;;;;;10.53;9.63;;;18.10;99.90;;;;;;10551141;28;20227;-80
2021/07/07 03:41:31;;;;;;;11.00;10.20;;;18.00;99.90;;;;;;10552687;28;20202;-80
2021/07/07 03:46:34;;;;;;;9.50;8.80;;;18.10;99.90;;;;;;10550381;28;20232;-80
2021/07/07 03:51:36;;;;;;;10.93;10.13;;;18.10;99.90;;;;;;10549584;28;20204;-80
2021/07/07 03:56:39;;;;;;;10.40;9.60;;;18.10;99.90;;;;;;10548697;28;20234;-80
2021/07/07 04:01:41;;;;;;;9.27;8.60;;;18.10;99.90;;;;;;10543611;28;20225;-80
2021/07/07 04:06:43;;;;;;;9.97;9.30;;;18.10;99.90;;;;;;10529251;28;20572;-80
2021/07/07 04:11:47;;;;;;;10.57;9.87;;;18.10;99.90;;;;;;10551080;28;20751;-80
2021/07/07 04:16:49;;;;;;;10.70;9.87;;;18.10;99.90;;;;;;10550982;28;20262;-80
2021/07/07 04:21:52;;;;;;;8.47;7.87;;;18.10;99.90;;;;;;10547264;28;20219;-80
2021/07/07 04:26:55;;;;;;;7.30;6.80;;;18.10;99.90;;;;;;10541103;28;20725;-80
2021/07/07 04:31:57;;;;;;;8.90;8.30;;;18.00;99.90;;;;;;10547577;28;20214;-80
2021/07/07 04:37:01;;;;;;;9.57;8.87;;;18.00;99.90;;;;;;10552092;28;20712;-80
2021/07/07 04:42:04;;;;;;;10.20;9.50;;;18.10;99.90;;;;;;10554307;28;20216;-80
2021/07/07 04:47:06;;;;;;;9.17;8.60;;;18.10;99.90;;;;;;10532266;28;20232;-80
2021/07/07 04:52:08;;;;;;;7.43;6.93;;;18.20;99.90;;;;;;10552489;28;20200;-80
2021/07/07 04:57:11;;;;;;;8.97;8.17;;;18.20;99.90;;;;;;10544228;28;20327;-80
2021/07/07 05:02:13;;;;;;;9.63;8.80;;;18.20;99.90;;;;;;10520128;28;20216;-80
2021/07/07 05:07:15;;;;;;;9.30;8.50;;;18.10;99.90;;;;;;10529930;28;20216;-80
2021/07/07 05:12:19;;;;;;;8.40;7.80;;;18.10;99.90;;;;;;10559012;28;20204;-80
2021/07/07 05:17:21;;;;;;;7.10;6.60;;;18.10;99.90;;;;;;10526317;28;20226;-80
2021/07/07 05:22:23;;;;;;;7.67;7.07;;;18.00;99.90;;;;;;10526433;28;20219;-80
2021/07/07 05:27:26;;;;;;;6.10;5.70;;;18.00;99.90;;;;;;10543094;28;20221;-80
2021/07/07 05:32:28;;;;;;;6.73;6.33;;;18.00;99.90;;;;;;10518514;28;20210;-80
2021/07/07 05:37:30;;;;;;;5.57;5.00;;;18.10;99.90;;;;;;10560321;22;20419;-77
2021/07/07 05:42:33;;;;;;;4.53;4.17;;;18.20;99.90;;;;;;10542739;28;20222;-78
2021/07/07 05:47:35;;;;;;;5.20;4.40;;;18.20;99.90;;;;;;10544748;28;20273;-78
2021/07/07 05:52:37;;;;;;;4.77;4.37;;;18.10;99.90;;;;;;10544764;28;20538;-77
2021/07/07 05:57:41;;;;;;;4.50;4.20;;;18.10;99.90;;;;;;10539453;28;20220;-78
2021/07/07 06:02:44;;;;;;;4.00;3.60;;;18.10;99.90;;;;;;10537909;28;20230;-78
2021/07/07 06:07:46;;;;;;;3.80;3.60;;;18.20;99.90;;;;;;10539006;28;20226;-78
2021/07/07 06:12:50;;;;;;;3.40;3.10;;;18.20;99.90;;;;;;10535420;28;20203;-77
2021/07/07 06:17:52;;;;;;;4.20;3.90;;;18.30;99.90;;;;;;10540579;28;20226;-77
2021/07/07 06:22:54;;;;;;;5.53;3.60;;;18.40;99.90;;;;;;10538656;28;20242;-77
2021/07/07 06:27:57;;;;;;;3.37;3.07;;;18.50;99.90;;;;;;10537808;28;20698;-78
2021/07/07 06:33:02;;;;;;;5.57;3.23;;;18.50;99.90;;;;;;10536568;28;20211;-78
2021/07/07 06:38:05;;;;;;;3.90;3.27;;;18.40;99.90;;;;;;10537842;28;20231;-78
2021/07/07 06:43:08;;;;;;;2.23;2.13;;;18.50;99.90;;;;;;10533647;28;20222;-78
2021/07/07 06:48:11;;;;;;;2.67;2.47;;;18.60;99.90;;;;;;10537229;28;20227;-78
2021/07/07 06:53:14;;;;;;;2.97;2.67;;;18.80;99.90;;;;;;10539421;28;20192;-78
2021/07/07 06:58:18;;;;;;;2.73;2.17;;;18.80;99.90;;;;;;10537230;28;20771;-77
2021/07/07 07:03:20;;;;;;;2.97;2.60;;;18.80;99.90;;;;;;10538284;28;20318;-78
2021/07/07 07:08:22;;;;;;;2.90;2.70;;;18.70;99.90;;;;;;10529768;28;20226;-77
2021/07/07 07:13:25;;;;;;;2.90;2.70;;;18.80;99.90;;;;;;10544233;28;20646;-78
2021/07/07 07:18:27;;;;;;;3.13;2.83;;;18.80;99.90;;;;;;10546969;28;20256;-78
2021/07/07 07:23:29;;;;;;;9.40;4.00;;;18.80;99.90;;;;;;10545729;28;20220;-78
2021/07/07 07:28:32;;;;;;;3.30;2.50;;;18.70;99.90;;;;;;10546650;28;20397;-78
2021/07/07 07:33:34;;;;;;;6.13;3.47;;;18.70;99.90;;;;;;10544799;28;20204;-78
2021/07/07 07:38:39;;;;;;;2.90;2.70;;;18.60;99.90;;;;;;10544597;28;20242;-77
2021/07/07 07:43:43;;;;;;;2.83;2.73;;;18.60;99.90;;;;;;10541546;28;20266;-78
2021/07/07 07:48:45;;;;;;;4.10;2.80;;;18.70;99.90;;;;;;10543978;28;20228;-78
2021/07/07 07:53:48;;;;;;;2.83;2.63;;;18.70;99.90;;;;;;10544920;28;20292;-78
2021/07/07 07:58:51;;;;;;;3.40;3.10;;;18.70;99.90;;;;;;10543928;28;20230;-78
2021/07/07 08:03:53;;;;;;;2.97;2.67;;;18.60;99.90;;;;;;10545601;28;20224;-78
2021/07/07 08:08:56;;;;;;;4.80;3.20;;;18.60;99.90;;;;;;10542029;28;20565;-78
2021/07/07 08:14:00;;;;;;;3.10;2.90;;;18.70;99.90;;;;;;10537964;28;20227;-78
2021/07/07 08:19:02;;;;;;;5.03;2.80;;;18.80;99.90;;;;;;10542794;28;20242;-78
2021/07/07 08:24:04;;;;;;;3.83;2.90;;;19.10;99.90;;;;;;10542436;28;20228;-78
2021/07/07 08:29:08;;;;;;;2.40;2.30;;;19.20;99.90;;;;;;10543424;28;20306;-78
2021/07/07 08:34:10;;;;;;;2.50;2.30;;;19.20;99.90;;;;;;10542547;28;20689;-78
2021/07/07 08:39:12;;;;;;;2.60;2.40;;;19.10;99.90;;;;;;10543308;28;20274;-77
2021/07/07 08:44:15;;;;;;;2.70;2.40;;;19.20;99.90;;;;;;10528593;28;20224;-77
2021/07/07 08:49:17;;;;;;;3.00;2.20;;;19.20;99.90;;;;;;10541879;28;20249;-78
2021/07/07 08:54:19;;;;;;;2.80;2.47;;;19.30;99.90;;;;;;10540545;28;20202;-78
2021/07/07 08:59:24;;;;;;;2.43;2.23;;;19.40;99.90;;;;;;10539667;28;20228;-78
2021/07/07 09:04:30;;;;;;;2.97;2.60;;;19.40;99.90;;;;;;10541136;28;20703;-78
2021/07/07 09:09:40;;;;;;;3.50;2.40;;;19.40;99.90;;;;;;10539931;28;20702;-78
2021/07/07 09:14:45;;;;;;;3.63;2.37;;;19.90;99.90;;;;;;10537097;28;20196;-78
2021/07/07 09:19:48;;;;;;;2.57;2.30;;;20.30;99.90;;;;;;10541970;28;20235;-78
2021/07/07 09:24:59;;;;;;;2.40;2.30;;;20.50;99.90;;;;;;10542381;28;20244;-77
2021/07/07 09:30:06;;;;;;;2.80;2.00;;;20.80;99.90;;;;;;10542557;28;20307;-78
2021/07/07 09:35:09;;;;;;;2.00;1.90;;;20.90;99.90;;;;;;10539727;28;20678;-77
2021/07/07 09:40:13;;;;;;;2.43;2.23;;;20.90;99.90;;;;;;10538879;28;20231;-78
2021/07/07 09:45:19;;;;;;;2.33;2.07;;;20.90;99.90;;;;;;10537751;28;20277;-78
2021/07/07 09:50:23;;;;;;;9.40;2.60;;;20.90;99.90;;;;;;10538594;28;20228;-78
2021/07/07 09:55:26;;;;;;;3.97;2.00;;;20.80;99.90;;;;;;10537869;28;20236;-78
2021/07/07 10:00:37;;;;;;;2.60;2.40;;;20.60;99.90;;;;;;10538537;28;20219;-78
2021/07/07 10:05:41;;;;;;;2.50;2.27;;;20.50;99.90;;;;;;10537240;28;20231;-78
2021/07/07 10:10:43;;;;;;;4.30;2.30;;;20.50;99.90;;;;;;10523676;28;20683;-78
2021/07/07 10:15:48;;;;;;;2.30;2.03;;;20.50;99.90;;;;;;10528478;28;20196;-78
2021/07/07 10:20:52;;;;;;;2.90;2.07;;;20.50;99.90;;;;;;10537539;28;20231;-77
2021/07/07 10:25:55;;;;;;;2.40;2.30;;;20.60;99.90;;;;;;10536559;28;20646;-78
2021/07/07 10:31:00;;;;;;;5.10;2.00;;;20.80;99.90;;;;;;10531205;28;20241;-78
2021/07/07 10:36:32;;;;;;;2.20;2.10;;;21.00;99.90;;;;;;10538066;28;20683;-78
2021/07/07 10:41:55;;;;;;;2.20;2.10;;;21.10;99.90;;;;;;10532302;28;20215;-77
2021/07/07 10:47:00;;;;;;;2.47;2.27;;;21.10;99.90;;;;;;10540125;28;20741;-78
2021/07/07 10:52:02;;;;;;;1.80;1.70;;;21.60;99.90;;;;;;10546285;28;20207;-78
2021/07/07 10:57:07;;;;;;;1.47;1.47;;;21.90;99.90;;;;;;10544945;28;20319;-78
2021/07/07 11:02:20;;;;;;;2.40;2.20;;;21.90;99.90;;;;;;10546555;28;20377;-78
2021/07/07 11:07:27;;;;;;;1.90;1.80;;;22.00;99.90;;;;;;10544153;28;20227;-78
2021/07/07 11:12:52;;;;;;;4.00;2.03;;;22.10;99.90;;;;;;10545169;28;20578;-78
2021/07/07 11:17:58;;;;;;;2.03;1.93;;;22.20;99.90;;;;;;10546181;28;20227;-78
2021/07/07 11:23:02;;;;;;;2.20;2.00;;;22.40;99.90;;;;;;10545660;28;20205;-78
2021/07/07 11:28:06;;;;;;;2.47;2.37;;;22.60;99.90;;;;;;10545316;28;20238;-78
2021/07/07 11:33:09;;;;;;;2.90;1.60;;;22.70;99.90;;;;;;10544901;28;20607;-78
2021/07/07 11:38:14;;;;;;;1.67;1.57;;;22.60;99.90;;;;;;10545000;28;20715;-78
2021/07/07 11:43:18;;;;;;;2.10;1.90;;;22.70;99.90;;;;;;10540486;28;20216;-78
2021/07/07 11:48:25;;;;;;;2.77;1.93;;;22.80;99.90;;;;;;10544179;28;20234;-78
2021/07/07 11:53:35;;;;;;;2.10;2.00;;;22.90;99.90;;;;;;10543269;28;20566;-78
2021/07/07 11:58:43;;;;;;;2.33;1.83;;;23.00;99.90;;;;;;10541843;28;20590;-78
2021/07/07 12:03:55;;;;;;;2.03;1.93;;;23.00;99.90;;;;;;10543681;28;20219;-78
2021/07/07 12:08:57;;;;;;;2.13;2.03;;;23.10;99.90;;;;;;10542368;28;20215;-78
2021/07/07 12:14:09;;;;;;;1.87;1.77;;;23.30;99.90;;;;;;10538871;28;20510;-77
2021/07/07 12:19:14;;;;;;;1.73;1.63;;;23.40;99.90;;;;;;10542468;28;20228;-78
2021/07/07 12:24:20;;;;;;;1.80;1.70;;;23.40;99.90;;;;;;10542940;28;20666;-78
2021/07/07 12:29:24;;;;;;;1.90;1.73;;;23.50;99.90;;;;;;10542663;28;20223;-78
2021/07/07 12:34:29;;;;;;;1.60;1.50;;;23.50;99.90;;;;;;10542982;28;20196;-78
2021/07/07 12:39:34;;;;;;;3.40;2.07;;;23.50;99.90;;;;;;10542466;28;20703;-78
2021/07/07 12:44:38;;;;;;;1.70;1.60;;;23.60;99.90;;;;;;10538512;28;20228;-78
2021/07/07 12:49:45;;;;;;;1.47;1.37;;;23.60;99.90;;;;;;10540782;28;20230;-78
2021/07/07 12:55:00;;;;;;;1.60;1.50;;;23.50;99.90;;;;;;10540124;28;20215;-78
2021/07/07 13:00:04;;;;;;;1.67;1.57;;;23.40;99.90;;;;;;10540148;28;20221;-78
2021/07/07 13:05:14;;;;;;;1.60;1.50;;;23.10;99.90;;;;;;10533691;28;20231;-78
2021/07/07 13:10:28;;;;;;;1.50;1.40;;;23.00;99.90;;;;;;10537533;28;20665;-78
2021/07/07 13:15:30;;;;;;;1.70;1.60;;;23.20;99.90;;;;;;10494489;28;20208;-78
2021/07/07 13:20:33;;;;;;;1.80;1.70;;;23.20;99.90;;;;;;10514049;28;20250;-78
2021/07/07 13:25:35;;;;;;;1.50;1.50;;;23.30;99.90;;;;;;10515788;28;20224;-78
2021/07/07 13:30:38;;;;;;;1.70;1.60;;;23.50;99.90;;;;;;10504328;28;20220;-78
2021/07/07 13:35:41;;;;;;;1.60;1.50;;;23.60;99.90;;;;;;10511914;28;20257;-78
2021/07/07 13:40:43;;;;;;;2.17;2.07;;;23.40;99.90;;;;;;10510632;28;20804;-78
2021/07/07 13:45:45;;;;;;;1.93;1.83;;;23.40;99.90;;;;;;10507127;28;20307;-78
2021/07/07 13:50:49;;;;;;;1.30;1.20;;;23.40;99.90;;;;;;10510899;28;20278;-78
2021/07/07 13:55:51;;;;;;;1.57;1.50;;;23.20;99.90;;;;;;10507819;28;20201;-78
2021/07/07 14:00:53;;;;;;;1.37;1.30;;;23.00;99.90;;;;;;10529814;28;20220;-78
2021/07/07 14:05:58;;;;;;;2.10;1.70;;;22.90;99.90;;;;;;10533798;28;20242;-78
2021/07/07 14:11:00;;;;;;;1.40;1.40;;;23.00;99.90;;;;;;10520870;28;20224;-78
2021/07/07 14:16:02;;;;;;;3.17;1.90;;;23.10;99.90;;;;;;10533047;28;20578;-77
2021/07/07 14:21:06;;;;;;;1.53;1.43;;;23.20;99.90;;;;;;10541357;28;20231;-78
2021/07/07 14:26:08;;;;;;;1.73;1.67;;;23.30;99.90;;;;;;10535522;28;20249;-78
2021/07/07 14:31:10;;;;;;;1.90;1.80;;;23.30;99.90;;;;;;10503886;28;20232;-78
2021/07/07 14:36:14;;;;;;;1.93;1.83;;;23.20;99.90;;;;;;10535294;28;20195;-79
2021/07/07 14:41:16;;;;;;;1.30;1.30;;;23.20;99.90;;;;;;10534900;28;20234;-79
2021/07/07 14:46:18;;;;;;;1.50;1.50;;;23.10;99.90;;;;;;10532933;28;20230;-79
2021/07/07 14:51:22;;;;;;;1.60;1.50;;;23.00;99.90;;;;;;10532834;28;20660;-80
2021/07/07 14:56:24;;;;;;;3.27;1.40;;;23.00;99.90;;;;;;10527435;28;20670;-78
2021/07/07 15:01:28;;;;;;;1.67;1.57;;;23.00;99.90;;;;;;10535066;28;20317;-77
2021/07/07 15:06:32;;;;;;;1.40;1.30;;;23.00;99.90;;;;;;10519269;28;20227;-78
2021/07/07 15:11:34;;;;;;;1.40;1.40;;;23.20;99.90;;;;;;10520711;28;20220;-79
2021/07/07 15:16:36;;;;;;;1.40;1.40;;;23.30;99.90;;;;;;10515244;28;20200;-78
2021/07/07 15:21:39;;;;;;;1.83;1.40;;;23.50;99.90;;;;;;10506573;28;20216;-78
2021/07/07 15:26:41;;;;;;;1.50;1.40;;;23.60;99.90;;;;;;10515291;28;20684;-79
2021/07/07 15:31:44;;;;;;;1.70;1.60;;;23.60;99.90;;;;;;10525146;28;20262;-79
2021/07/07 15:36:47;;;;;;;1.73;1.33;;;23.60;99.90;;;;;;10524475;28;20228;-79
2021/07/07 15:41:49;;;;;;;1.70;1.60;;;23.60;99.90;;;;;;10526185;28;20200;-77
2021/07/07 15:46:51;;;;;;;1.30;1.30;;;23.60;99.90;;;;;;10526946;28;20224;-78
2021/07/07 15:51:55;;;;;;;3.23;1.60;;;23.60;99.90;;;;;;10526996;28;20204;-77
2021/07/07 15:56:57;;;;;;;2.07;1.60;;;23.60;99.90;;;;;;10511051;28;20220;-78
2021/07/07 16:01:59;;;;;;;1.50;1.40;;;23.40;99.90;;;;;;10505012;28;20212;-79
2021/07/07 16:07:03;;;;;;;1.70;1.60;;;23.10;99.90;;;;;;10537902;28;20288;-78
2021/07/07 16:12:05;;;;;;;3.67;1.70;;;22.90;99.90;;;;;;10505367;28;20239;-79
2021/07/07 16:17:08;;;;;;;1.73;1.63;;;22.70;99.90;;;;;;10504186;28;20303;-78
2021/07/07 16:22:12;;;;;;;1.60;1.50;;;22.50;99.90;;;;;;10520683;28;20691;-78
2021/07/07 16:27:14;;;;;;;1.70;1.60;;;22.50;99.90;;;;;;10531621;28;20306;-78
2021/07/07 16:32:16;;;;;;;1.80;1.70;;;22.50;99.90;;;;;;10507161;28;20251;-79
2021/07/07 16:37:20;;;;;;;2.47;2.07;;;22.50;99.90;;;;;;10508955;28;20244;-78
2021/07/07 16:42:22;;;;;;;2.03;1.93;;;22.40;99.90;;;;;;10507478;28;20212;-78
2021/07/07 16:47:25;;;;;;;4.43;2.00;;;22.20;99.90;;;;;;10519465;28;20604;-78
2021/07/07 16:52:28;;;;;;;1.60;1.50;;;22.10;99.90;;;;;;10520740;28;20748;-78
2021/07/07 16:57:31;;;;;;;2.30;2.20;;;22.00;99.90;;;;;;10540248;28;20274;-78
2021/07/07 17:02:34;;;;;;;2.20;2.00;;;22.00;99.90;;;;;;10532588;28;20200;-78
2021/07/07 17:07:37;;;;;;;2.30;2.10;;;22.00;99.90;;;;;;10536450;28;20799;-79
2021/07/07 17:12:39;;;;;;;2.70;1.90;;;22.00;99.90;;;;;;10536134;28;20204;-78
2021/07/07 17:17:41;;;;;;;2.03;1.93;;;22.00;99.90;;;;;;10536972;28;20218;-79
2021/07/07 17:22:45;;;;;;;1.80;1.70;;;22.00;99.90;;;;;;10527478;28;20735;-79
2021/07/07 17:27:48;;;;;;;2.13;1.93;;;22.00;99.90;;;;;;10527581;28;20254;-79
2021/07/07 17:32:50;;;;;;;3.03;2.10;;;21.90;99.90;;;;;;10514027;28;20210;-78
2021/07/07 17:37:54;;;;;;;1.70;1.60;;;21.90;99.90;;;;;;10511046;28;20231;-78
2021/07/07 17:42:56;;;;;;;1.83;1.73;;;21.90;99.90;;;;;;10507741;28;20274;-79
2021/07/07 17:48:03;;;;;;;2.10;2.00;;;21.90;99.90;;;;;;10520394;28;20239;-79
2021/07/07 17:53:08;;;;;;;2.63;2.50;;;21.90;99.90;;;;;;10515628;28;20204;-79
2021/07/07 17:58:10;;;;;;;2.50;1.93;;;21.90;99.90;;;;;;10533309;28;20226;-78
2021/07/07 18:03:12;;;;;;;1.90;1.80;;;21.80;99.90;;;;;;10505350;28;20208;-79
2021/07/07 18:08:17;;;;;;;1.30;1.20;;;21.80;99.90;;;;;;10532711;28;20259;-79
2021/07/07 18:13:19;;;;;;;1.90;1.80;;;21.80;99.90;;;;;;10536727;28;20212;-79
2021/07/07 18:18:21;;;;;;;1.73;1.63;;;21.80;99.90;;;;;;10536759;28;20230;-79
2021/07/07 18:23:25;;;;;;;2.03;1.90;;;21.70;99.90;;;;;;10536892;28;20227;-79
2021/07/07 18:28:27;;;;;;;2.20;2.00;;;21.70;99.90;;;;;;10538011;28;20220;-78
2021/07/07 18:33:30;;;;;;;2.30;2.20;;;21.60;99.90;;;;;;10537566;28;20211;-79
2021/07/07 18:38:34;;;;;;;1.73;1.63;;;21.60;99.90;;;;;;10531848;28;20274;-79
2021/07/07 18:43:37;;;;;;;2.20;2.00;;;21.50;99.90;;;;;;10537274;28;20270;-79
2021/07/07 18:48:39;;;;;;;2.37;2.27;;;21.50;99.90;;;;;;10536233;28;20239;-79
2021/07/07 18:53:42;;;;;;;2.10;2.00;;;21.40;99.90;;;;;;10530351;28;20245;-78
2021/07/07 18:58:45;;;;;;;2.03;1.93;;;21.30;99.90;;;;;;10536663;28;20307;-78
2021/07/07 19:03:47;;;;;;;2.23;2.10;;;21.20;99.90;;;;;;10534804;28;20200;-79
2021/07/07 19:08:51;;;;;;;1.47;1.37;;;21.10;99.90;;;;;;10541197;28;20687;-79
2021/07/07 19:13:53;;;;;;;2.00;1.90;;;21.00;99.90;;;;;;10544724;28;20589;-79
2021/07/07 19:18:56;;;;;;;1.63;1.53;;;20.90;99.90;;;;;;10525749;28;20277;-79
2021/07/07 19:23:59;;;;;;;1.83;1.73;;;20.80;99.90;;;;;;10543305;28;20329;-78
2021/07/07 19:29:01;;;;;;;1.93;1.70;;;20.70;99.90;;;;;;10542792;28;20228;-79
2021/07/07 19:34:04;;;;;;;1.97;1.63;;;20.60;99.90;;;;;;10541712;28;20199;-79
2021/07/07 19:39:07;;;;;;;2.07;1.97;;;20.60;99.90;;;;;;10543253;28;20652;-79
2021/07/07 19:44:10;;;;;;;2.00;1.70;;;20.50;99.90;;;;;;10542776;28;20257;-79
2021/07/07 19:49:12;;;;;;;3.73;1.63;;;20.50;99.90;;;;;;10540360;28;20293;-78
2021/07/07 19:54:17;;;;;;;1.67;1.57;;;20.40;99.90;;;;;;10540959;28;20249;-78
2021/07/07 19:59:20;;;;;;;2.00;1.80;;;20.40;99.90;;;;;;10537672;28;20608;-79
2021/07/07 20:04:22;;;;;;;1.70;1.60;;;20.40;99.90;;;;;;10539360;28;20580;-79
2021/07/07 20:09:26;;;;;;;1.50;1.40;;;20.50;99.90;;;;;;10539309;28;20688;-78
2021/07/07 20:14:28;;;;;;;1.23;1.20;;;20.50;99.90;;;;;;10540806;28;20569;-78
2021/07/07 20:19:30;;;;;;;1.70;1.60;;;20.40;99.90;;;;;;10540165;28;20640;-78
2021/07/07 20:24:34;;;;;;;1.53;1.43;;;20.40;99.90;;;;;;10540064;28;20287;-79
2021/07/07 20:29:36;;;;;;;1.43;1.37;;;20.40;99.90;;;;;;10522461;28;20319;-78
2021/07/07 20:34:38;;;;;;;1.97;1.40;;;20.40;99.90;;;;;;10543564;28;20227;-78
2021/07/07 20:39:42;;;;;;;1.93;1.67;;;20.40;99.90;;;;;;10538179;28;20242;-78
2021/07/07 20:44:45;;;;;;;4.53;1.50;;;20.40;99.90;;;;;;10539899;28;20227;-78
2021/07/07 20:49:47;;;;;;;2.10;1.80;;;20.40;99.90;;;;;;10540362;28;20220;-78
2021/07/07 20:54:50;;;;;;;2.43;1.70;;;20.30;99.90;;;;;;10540107;28;20257;-79
2021/07/07 20:59:53;;;;;;;1.87;1.77;;;20.40;99.90;;;;;;10540197;28;20651;-78
2021/07/07 21:04:55;;;;;;;1.97;1.87;;;20.30;99.90;;;;;;10539325;28;20264;-78
2021/07/07 21:09:58;;;;;;;2.17;1.60;;;20.40;99.90;;;;;;10537737;28;20250;-78
2021/07/07 21:15:00;;;;;;;2.10;1.87;;;20.40;99.90;;;;;;10537788;28;20568;-79
2021/07/07 21:20:04;;;;;;;2.43;2.30;;;20.30;99.90;;;;;;10531341;28;20243;-78
2021/07/07 21:25:09;;;;;;;2.93;2.00;;;20.30;99.90;;;;;;10536399;28;20211;-79
2021/07/07 21:30:13;;;;;;;2.17;1.97;;;20.30;99.90;;;;;;10536613;28;20243;-79
2021/07/07 21:35:17;;;;;;;3.23;2.13;;;20.30;99.90;;;;;;10523360;28;20200;-79
2021/07/07 21:40:22;;;;;;;2.90;2.47;;;20.20;99.90;;;;;;10530054;28;20226;-78
2021/07/07 21:45:28;;;;;;;25.63;23.27;;;20.20;99.90;;;;;;10534910;28;20265;-78
2021/07/07 21:50:30;;;;;;;3.17;2.20;;;20.20;99.90;;;;;;10536217;28;20687;-78
2021/07/07 21:55:33;;;;;;;2.50;2.13;;;20.10;99.90;;;;;;10535806;28;20275;-79
2021/07/07 22:00:37;;;;;;;2.23;2.13;;;20.00;99.90;;;;;;10520670;28;20239;-77
2021/07/07 22:05:39;;;;;;;6.23;1.83;;;19.90;99.90;;;;;;10534250;28;20212;-77
2021/07/07 22:10:43;;;;;;;2.60;2.50;;;19.80;99.90;;;;;;10535243;28;20224;-78
2021/07/07 22:15:45;;;;;;;3.43;2.83;;;19.80;99.90;;;;;;10535485;28;20196;-77
2021/07/07 22:20:49;;;;;;;3.90;2.33;;;19.80;99.90;;;;;;10535587;28;20323;-76
2021/07/07 22:25:53;;;;;;;2.60;2.50;;;19.70;99.90;;;;;;10510121;28;20374;-77
2021/07/07 22:30:55;;;;;;;2.27;2.10;;;19.70;99.90;;;;;;10511156;28;20216;-77
2021/07/07 22:35:57;;;;;;;2.87;2.30;;;19.70;99.90;;;;;;10514334;28;20276;-78
2021/07/07 22:41:01;;;;;;;2.67;2.20;;;19.80;99.90;;;;;;10527325;28;20297;-76
2021/07/07 22:46:04;;;;;;;2.33;2.10;;;19.80;99.90;;;;;;10533146;28;20214;-77
2021/07/07 22:51:09;;;;;;;4.77;2.23;;;19.80;99.90;;;;;;10533902;28;20346;-78
2021/07/07 22:56:14;;;;;;;3.20;1.97;;;19.80;99.90;;;;;;10534492;28;20223;-78
2021/07/07 23:01:16;;;;;;;5.70;2.43;;;19.80;99.90;;;;;;10534539;28;20276;-76
2021/07/07 23:06:18;;;;;;;2.73;2.53;;;19.80;99.90;;;;;;10526880;28;20620;-76
2021/07/07 23:11:22;;;;;;;2.90;2.10;;;19.70;99.90;;;;;;10534261;28;20315;-77
2021/07/07 23:16:24;;;;;;;2.70;2.10;;;19.60;99.90;;;;;;10532052;28;20196;-76
2021/07/07 23:21:26;;;;;;;2.30;1.83;;;19.50;99.90;;;;;;10533208;28;20208;-77
2021/07/07 23:26:29;;;;;;;1.90;1.80;;;19.50;99.90;;;;;;10527299;28;20220;-77
2021/07/07 23:31:31;;;;;;;2.60;2.30;;;19.50;99.90;;;;;;10526778;28;20250;-77
2021/07/07 23:36:33;;;;;;;5.17;1.80;;;19.50;99.90;;;;;;10532809;28;20656;-77
2021/07/07 23:41:38;;;;;;;2.13;1.97;;;19.50;99.90;;;;;;10534404;28;20295;-79
2021/07/07 23:46:40;;;;;;;2.50;2.30;;;19.50;99.90;;;;;;10512330;28;20228;-78
2021/07/07 23:51:42;;;;;;;2.60;1.87;;;19.50;99.90;;;;;;10534001;28;20204;-78
2021/07/07 23:56:46;;;;;;;2.97;2.10;;;19.50;99.90;;;;;;10540195;28;20215;-78
